sensor_id;sensor_type;location;lat;lon;timestamp;P1;durP1;ratioP1;P2;durP2;ratioP2
13720;SDS011;6932;51.438;5.470;2022-08-19T00:00:33;13.30;;;11.00;;
13720;SDS011;6932;51.438;5.470;2022-08-19T00:03:01;13.60;;;11.27;;
13720;SDS011;6932;51.438;5.470;2022-08-19T00:05:28;13.87;;;10.53;;
13720;SDS011;6932;51.438;5.470;2022-08-19T00:07:54;14.33;;;11.20;;
13720;SDS011;6932;51.438;5.470;2022-08-19T00:10:20;13.17;;;10.70;;
13720;SDS011;6932;51.438;5.470;2022-08-19T00:12:46;14.53;;;11.50;;
13720;SDS011;6932;51.438;5.470;2022-08-19T00:15:13;13.50;;;11.47;;
13720;SDS011;6932;51.438;5.470;2022-08-19T00:17:43;13.63;;;11.50;;
13720;SDS011;6932;51.438;5.470;2022-08-19T00:20:10;14.27;;;11.33;;
13720;SDS011;6932;51.438;5.470;2022-08-19T00:22:41;14.23;;;12.10;;
13720;SDS011;6932;51.438;5.470;2022-08-19T00:25:08;14.43;;;11.53;;
13720;SDS011;6932;51.438;5.470;2022-08-19T00:27:34;15.23;;;11.73;;
13720;SDS011;6932;51.438;5.470;2022-08-19T00:29:59;14.07;;;11.30;;
13720;SDS011;6932;51.438;5.470;2022-08-19T00:32:27;16.03;;;11.57;;
13720;SDS011;6932;51.438;5.470;2022-08-19T00:34:53;14.80;;;11.93;;
13720;SDS011;6932;51.438;5.470;2022-08-19T00:37:20;14.13;;;11.87;;
13720;SDS011;6932;51.438;5.470;2022-08-19T00:39:48;14.53;;;11.93;;
13720;SDS011;6932;51.438;5.470;2022-08-19T00:42:16;15.40;;;11.50;;
13720;SDS011;6932;51.438;5.470;2022-08-19T00:44:44;14.90;;;11.87;;
13720;SDS011;6932;51.438;5.470;2022-08-19T00:47:09;15.60;;;12.20;;
13720;SDS011;6932;51.438;5.470;2022-08-19T00:49:37;14.90;;;11.87;;
13720;SDS011;6932;51.438;5.470;2022-08-19T00:52:14;16.00;;;12.03;;
13720;SDS011;6932;51.438;5.470;2022-08-19T00:54:48;15.70;;;12.20;;
13720;SDS011;6932;51.438;5.470;2022-08-19T00:57:17;14.97;;;11.47;;
13720;SDS011;6932;51.438;5.470;2022-08-19T00:59:51;15.80;;;12.23;;
13720;SDS011;6932;51.438;5.470;2022-08-19T01:02:21;15.30;;;12.27;;
13720;SDS011;6932;51.438;5.470;2022-08-19T01:04:47;14.80;;;11.90;;
13720;SDS011;6932;51.438;5.470;2022-08-19T01:07:13;16.20;;;12.43;;
13720;SDS011;6932;51.438;5.470;2022-08-19T01:09:39;15.80;;;12.00;;
13720;SDS011;6932;51.438;5.470;2022-08-19T01:12:05;14.87;;;12.00;;
13720;SDS011;6932;51.438;5.470;2022-08-19T01:14:32;15.00;;;12.10;;
13720;SDS011;6932;51.438;5.470;2022-08-19T01:16:59;15.50;;;11.67;;
13720;SDS011;6932;51.438;5.470;2022-08-19T01:19:27;14.93;;;11.13;;
13720;SDS011;6932;51.438;5.470;2022-08-19T01:22:47;14.83;;;11.73;;
13720;SDS011;6932;51.438;5.470;2022-08-19T01:25:02;14.83;;;12.03;;
13720;SDS011;6932;51.438;5.470;2022-08-19T01:27:36;15.60;;;12.10;;
13720;SDS011;6932;51.438;5.470;2022-08-19T01:30:09;14.10;;;11.73;;
13720;SDS011;6932;51.438;5.470;2022-08-19T01:32:41;14.43;;;11.93;;
13720;SDS011;6932;51.438;5.470;2022-08-19T01:35:08;14.43;;;11.47;;
13720;SDS011;6932;51.438;5.470;2022-08-19T01:40:36;14.30;;;11.60;;
13720;SDS011;6932;51.438;5.470;2022-08-19T01:43:05;15.10;;;11.63;;
13720;SDS011;6932;51.438;5.470;2022-08-19T01:45:32;15.43;;;12.00;;
13720;SDS011;6932;51.438;5.470;2022-08-19T01:47:59;14.77;;;11.87;;
13720;SDS011;6932;51.438;5.470;2022-08-19T01:50:26;14.10;;;11.93;;
13720;SDS011;6932;51.438;5.470;2022-08-19T01:52:52;14.83;;;11.70;;
13720;SDS011;6932;51.438;5.470;2022-08-19T01:55:19;14.07;;;11.60;;
13720;SDS011;6932;51.438;5.470;2022-08-19T01:57:50;14.57;;;11.93;;
13720;SDS011;6932;51.438;5.470;2022-08-19T02:00:23;14.77;;;12.30;;
13720;SDS011;6932;51.438;5.470;2022-08-19T02:02:54;15.83;;;12.47;;
13720;SDS011;6932;51.438;5.470;2022-08-19T02:05:20;15.03;;;11.23;;
13720;SDS011;6932;51.438;5.470;2022-08-19T02:07:46;15.03;;;11.80;;
13720;SDS011;6932;51.438;5.470;2022-08-19T02:10:14;15.90;;;12.67;;
13720;SDS011;6932;51.438;5.470;2022-08-19T02:12:46;15.23;;;12.63;;
13720;SDS011;6932;51.438;5.470;2022-08-19T02:15:14;16.40;;;12.60;;
13720;SDS011;6932;51.438;5.470;2022-08-19T02:17:40;16.23;;;12.43;;
13720;SDS011;6932;51.438;5.470;2022-08-19T02:20:07;16.37;;;12.80;;
13720;SDS011;6932;51.438;5.470;2022-08-19T02:22:34;16.83;;;13.33;;
13720;SDS011;6932;51.438;5.470;2022-08-19T02:25:00;16.27;;;12.50;;
13720;SDS011;6932;51.438;5.470;2022-08-19T02:27:27;17.03;;;13.30;;
13720;SDS011;6932;51.438;5.470;2022-08-19T02:29:53;15.30;;;12.20;;
13720;SDS011;6932;51.438;5.470;2022-08-19T02:32:19;15.53;;;12.10;;
13720;SDS011;6932;51.438;5.470;2022-08-19T02:34:45;16.87;;;12.60;;
13720;SDS011;6932;51.438;5.470;2022-08-19T02:37:12;16.07;;;12.90;;
13720;SDS011;6932;51.438;5.470;2022-08-19T02:39:57;16.90;;;12.53;;
13720;SDS011;6932;51.438;5.470;2022-08-19T02:42:24;14.97;;;12.07;;
13720;SDS011;6932;51.438;5.470;2022-08-19T02:44:50;16.03;;;11.80;;
13720;SDS011;6932;51.438;5.470;2022-08-19T02:47:16;15.60;;;12.00;;
13720;SDS011;6932;51.438;5.470;2022-08-19T02:49:44;15.20;;;11.97;;
13720;SDS011;6932;51.438;5.470;2022-08-19T02:52:10;14.63;;;11.07;;
13720;SDS011;6932;51.438;5.470;2022-08-19T02:54:37;14.30;;;11.30;;
13720;SDS011;6932;51.438;5.470;2022-08-19T02:57:03;14.33;;;11.67;;
13720;SDS011;6932;51.438;5.470;2022-08-19T02:59:31;14.57;;;11.40;;
13720;SDS011;6932;51.438;5.470;2022-08-19T03:01:57;14.60;;;11.83;;
13720;SDS011;6932;51.438;5.470;2022-08-19T03:04:23;15.27;;;12.40;;
13720;SDS011;6932;51.438;5.470;2022-08-19T03:06:50;16.80;;;12.97;;
13720;SDS011;6932;51.438;5.470;2022-08-19T03:09:17;16.50;;;12.97;;
13720;SDS011;6932;51.438;5.470;2022-08-19T03:11:45;17.17;;;12.60;;
13720;SDS011;6932;51.438;5.470;2022-08-19T03:14:11;17.53;;;13.53;;
13720;SDS011;6932;51.438;5.470;2022-08-19T03:16:42;18.83;;;13.83;;
13720;SDS011;6932;51.438;5.470;2022-08-19T03:19:13;17.73;;;14.63;;
13720;SDS011;6932;51.438;5.470;2022-08-19T03:21:42;18.70;;;14.93;;
13720;SDS011;6932;51.438;5.470;2022-08-19T03:24:12;17.97;;;14.90;;
13720;SDS011;6932;51.438;5.470;2022-08-19T03:26:43;18.53;;;15.50;;
13720;SDS011;6932;51.438;5.470;2022-08-19T03:29:13;18.20;;;15.33;;
13720;SDS011;6932;51.438;5.470;2022-08-19T03:31:41;19.47;;;16.20;;
13720;SDS011;6932;51.438;5.470;2022-08-19T03:34:08;19.37;;;16.10;;
13720;SDS011;6932;51.438;5.470;2022-08-19T03:36:53;19.43;;;15.93;;
13720;SDS011;6932;51.438;5.470;2022-08-19T03:39:22;18.17;;;15.47;;
13720;SDS011;6932;51.438;5.470;2022-08-19T03:41:50;18.43;;;15.77;;
13720;SDS011;6932;51.438;5.470;2022-08-19T03:44:21;18.63;;;15.53;;
13720;SDS011;6932;51.438;5.470;2022-08-19T03:46:52;19.77;;;16.97;;
13720;SDS011;6932;51.438;5.470;2022-08-19T03:49:21;19.83;;;16.57;;
13720;SDS011;6932;51.438;5.470;2022-08-19T03:51:51;19.80;;;16.03;;
13720;SDS011;6932;51.438;5.470;2022-08-19T03:54:20;19.43;;;16.17;;
13720;SDS011;6932;51.438;5.470;2022-08-19T03:56:51;19.63;;;16.17;;
13720;SDS011;6932;51.438;5.470;2022-08-19T03:59:20;19.17;;;16.60;;
13720;SDS011;6932;51.438;5.470;2022-08-19T04:01:58;19.57;;;16.10;;
13720;SDS011;6932;51.438;5.470;2022-08-19T04:04:27;20.40;;;16.47;;
13720;SDS011;6932;51.438;5.470;2022-08-19T04:06:53;20.90;;;16.63;;
13720;SDS011;6932;51.438;5.470;2022-08-19T04:09:20;21.70;;;17.33;;
13720;SDS011;6932;51.438;5.470;2022-08-19T04:11:47;23.40;;;17.73;;
13720;SDS011;6932;51.438;5.470;2022-08-19T04:14:19;23.23;;;18.47;;
13720;SDS011;6932;51.438;5.470;2022-08-19T04:16:49;23.00;;;18.77;;
13720;SDS011;6932;51.438;5.470;2022-08-19T04:19:17;22.10;;;18.47;;
13720;SDS011;6932;51.438;5.470;2022-08-19T04:21:50;22.73;;;18.73;;
13720;SDS011;6932;51.438;5.470;2022-08-19T04:24:18;25.63;;;17.83;;
13720;SDS011;6932;51.438;5.470;2022-08-19T04:26:45;24.73;;;18.93;;
13720;SDS011;6932;51.438;5.470;2022-08-19T04:29:13;24.03;;;19.23;;
13720;SDS011;6932;51.438;5.470;2022-08-19T04:31:44;25.93;;;19.73;;
13720;SDS011;6932;51.438;5.470;2022-08-19T04:34:11;25.33;;;19.53;;
13720;SDS011;6932;51.438;5.470;2022-08-19T04:36:41;25.00;;;19.50;;
13720;SDS011;6932;51.438;5.470;2022-08-19T04:39:16;23.30;;;18.73;;
13720;SDS011;6932;51.438;5.470;2022-08-19T04:41:47;23.63;;;19.60;;
13720;SDS011;6932;51.438;5.470;2022-08-19T04:44:33;24.23;;;19.70;;
13720;SDS011;6932;51.438;5.470;2022-08-19T04:47:01;25.27;;;20.00;;
13720;SDS011;6932;51.438;5.470;2022-08-19T04:49:30;24.73;;;19.97;;
13720;SDS011;6932;51.438;5.470;2022-08-19T04:51:56;25.17;;;19.87;;
13720;SDS011;6932;51.438;5.470;2022-08-19T04:54:23;28.13;;;21.23;;
13720;SDS011;6932;51.438;5.470;2022-08-19T04:56:50;27.13;;;20.67;;
13720;SDS011;6932;51.438;5.470;2022-08-19T04:59:18;26.50;;;20.87;;
13720;SDS011;6932;51.438;5.470;2022-08-19T05:01:47;26.77;;;20.90;;
13720;SDS011;6932;51.438;5.470;2022-08-19T05:04:15;27.50;;;21.20;;
13720;SDS011;6932;51.438;5.470;2022-08-19T05:06:44;27.53;;;20.97;;
13720;SDS011;6932;51.438;5.470;2022-08-19T05:09:12;25.93;;;20.40;;
13720;SDS011;6932;51.438;5.470;2022-08-19T05:11:38;24.87;;;19.73;;
13720;SDS011;6932;51.438;5.470;2022-08-19T05:14:04;27.87;;;20.87;;
13720;SDS011;6932;51.438;5.470;2022-08-19T05:16:31;26.00;;;20.60;;
13720;SDS011;6932;51.438;5.470;2022-08-19T05:18:57;26.47;;;21.83;;
13720;SDS011;6932;51.438;5.470;2022-08-19T05:21:42;26.40;;;21.00;;
13720;SDS011;6932;51.438;5.470;2022-08-19T05:24:27;27.47;;;21.00;;
13720;SDS011;6932;51.438;5.470;2022-08-19T05:26:55;26.00;;;21.10;;
13720;SDS011;6932;51.438;5.470;2022-08-19T05:29:22;26.10;;;20.93;;
13720;SDS011;6932;51.438;5.470;2022-08-19T05:31:52;26.80;;;21.87;;
13720;SDS011;6932;51.438;5.470;2022-08-19T05:34:20;27.50;;;21.57;;
13720;SDS011;6932;51.438;5.470;2022-08-19T05:36:51;27.63;;;20.93;;
13720;SDS011;6932;51.438;5.470;2022-08-19T05:39:24;27.40;;;21.90;;
13720;SDS011;6932;51.438;5.470;2022-08-19T05:41:58;26.23;;;20.63;;
13720;SDS011;6932;51.438;5.470;2022-08-19T05:44:31;25.73;;;19.80;;
13720;SDS011;6932;51.438;5.470;2022-08-19T05:46:59;26.53;;;21.23;;
13720;SDS011;6932;51.438;5.470;2022-08-19T05:49:28;26.37;;;20.50;;
13720;SDS011;6932;51.438;5.470;2022-08-19T05:51:55;25.87;;;19.87;;
13720;SDS011;6932;51.438;5.470;2022-08-19T05:54:21;25.03;;;19.90;;
13720;SDS011;6932;51.438;5.470;2022-08-19T05:56:49;25.87;;;19.47;;
13720;SDS011;6932;51.438;5.470;2022-08-19T05:59:16;28.30;;;20.80;;
13720;SDS011;6932;51.438;5.470;2022-08-19T06:01:44;25.17;;;19.87;;
13720;SDS011;6932;51.438;5.470;2022-08-19T06:04:11;27.70;;;20.70;;
13720;SDS011;6932;51.438;5.470;2022-08-19T06:06:38;26.00;;;19.63;;
13720;SDS011;6932;51.438;5.470;2022-08-19T06:09:05;26.77;;;19.43;;
13720;SDS011;6932;51.438;5.470;2022-08-19T06:11:43;23.57;;;18.97;;
13720;SDS011;6932;51.438;5.470;2022-08-19T06:14:18;24.43;;;18.87;;
13720;SDS011;6932;51.438;5.470;2022-08-19T06:16:52;25.40;;;18.30;;
13720;SDS011;6932;51.438;5.470;2022-08-19T06:19:18;25.30;;;18.77;;
13720;SDS011;6932;51.438;5.470;2022-08-19T06:21:48;25.70;;;19.03;;
13720;SDS011;6932;51.438;5.470;2022-08-19T06:24:17;24.27;;;19.03;;
13720;SDS011;6932;51.438;5.470;2022-08-19T06:26:49;25.80;;;18.87;;
13720;SDS011;6932;51.438;5.470;2022-08-19T06:29:18;23.90;;;18.20;;
13720;SDS011;6932;51.438;5.470;2022-08-19T06:31:48;23.63;;;18.70;;
13720;SDS011;6932;51.438;5.470;2022-08-19T06:34:18;24.27;;;18.33;;
13720;SDS011;6932;51.438;5.470;2022-08-19T06:36:46;23.73;;;17.57;;
13720;SDS011;6932;51.438;5.470;2022-08-19T06:39:16;22.63;;;17.37;;
13720;SDS011;6932;51.438;5.470;2022-08-19T06:41:48;25.17;;;17.90;;
13720;SDS011;6932;51.438;5.470;2022-08-19T06:44:18;22.90;;;16.77;;
13720;SDS011;6932;51.438;5.470;2022-08-19T06:46:47;23.93;;;16.73;;
13720;SDS011;6932;51.438;5.470;2022-08-19T06:49:14;23.37;;;16.70;;
13720;SDS011;6932;51.438;5.470;2022-08-19T06:51:42;22.57;;;16.67;;
13720;SDS011;6932;51.438;5.470;2022-08-19T06:54:12;25.87;;;16.20;;
13720;SDS011;6932;51.438;5.470;2022-08-19T06:56:40;22.23;;;16.20;;
13720;SDS011;6932;51.438;5.470;2022-08-19T06:59:10;20.37;;;15.60;;
13720;SDS011;6932;51.438;5.470;2022-08-19T07:01:41;20.57;;;14.77;;
13720;SDS011;6932;51.438;5.470;2022-08-19T07:04:12;21.67;;;15.23;;
13720;SDS011;6932;51.438;5.470;2022-08-19T07:06:40;21.77;;;16.30;;
13720;SDS011;6932;51.438;5.470;2022-08-19T07:09:07;19.23;;;14.67;;
13720;SDS011;6932;51.438;5.470;2022-08-19T07:11:36;23.93;;;15.10;;
13720;SDS011;6932;51.438;5.470;2022-08-19T07:14:02;20.73;;;15.07;;
13720;SDS011;6932;51.438;5.470;2022-08-19T07:16:29;18.20;;;13.90;;
13720;SDS011;6932;51.438;5.470;2022-08-19T07:18:55;19.07;;;13.53;;
13720;SDS011;6932;51.438;5.470;2022-08-19T07:21:26;19.80;;;14.17;;
13720;SDS011;6932;51.438;5.470;2022-08-19T07:23:54;19.00;;;13.30;;
13720;SDS011;6932;51.438;5.470;2022-08-19T07:26:28;18.63;;;14.13;;
13720;SDS011;6932;51.438;5.470;2022-08-19T07:28:58;18.63;;;13.77;;
13720;SDS011;6932;51.438;5.470;2022-08-19T07:31:26;19.57;;;13.63;;
13720;SDS011;6932;51.438;5.470;2022-08-19T07:33:54;20.08;;;14.68;;
13720;SDS011;6932;51.438;5.470;2022-08-19T07:36:22;20.42;;;14.35;;
13720;SDS011;6932;51.438;5.470;2022-08-19T07:38:57;19.07;;;13.80;;
13720;SDS011;6932;51.438;5.470;2022-08-19T07:41:25;21.53;;;15.23;;
13720;SDS011;6932;51.438;5.470;2022-08-19T07:43:55;21.73;;;14.40;;
13720;SDS011;6932;51.438;5.470;2022-08-19T07:46:21;19.73;;;14.05;;
13720;SDS011;6932;51.438;5.470;2022-08-19T07:48:48;18.52;;;13.70;;
13720;SDS011;6932;51.438;5.470;2022-08-19T07:51:19;16.27;;;12.55;;
13720;SDS011;6932;51.438;5.470;2022-08-19T07:53:46;18.35;;;13.95;;
13720;SDS011;6932;51.438;5.470;2022-08-19T07:56:15;18.23;;;13.02;;
13720;SDS011;6932;51.438;5.470;2022-08-19T07:58:46;18.65;;;14.10;;
13720;SDS011;6932;51.438;5.470;2022-08-19T08:01:20;18.08;;;13.75;;
13720;SDS011;6932;51.438;5.470;2022-08-19T08:03:49;19.00;;;13.65;;
13720;SDS011;6932;51.438;5.470;2022-08-19T08:06:36;19.65;;;14.38;;
13720;SDS011;6932;51.438;5.470;2022-08-19T08:09:29;20.45;;;14.00;;
13720;SDS011;6932;51.438;5.470;2022-08-19T08:12:06;19.92;;;14.45;;
13720;SDS011;6932;51.438;5.470;2022-08-19T08:14:54;19.70;;;14.38;;
13720;SDS011;6932;51.438;5.470;2022-08-19T08:17:24;19.30;;;14.82;;
13720;SDS011;6932;51.438;5.470;2022-08-19T08:19:52;23.33;;;15.48;;
13720;SDS011;6932;51.438;5.470;2022-08-19T08:22:19;19.65;;;15.38;;
13720;SDS011;6932;51.438;5.470;2022-08-19T08:27:38;19.05;;;14.95;;
13720;SDS011;6932;51.438;5.470;2022-08-19T08:30:07;18.98;;;15.68;;
13720;SDS011;6932;51.438;5.470;2022-08-19T08:32:40;20.05;;;15.77;;
13720;SDS011;6932;51.438;5.470;2022-08-19T08:35:07;19.08;;;16.42;;
13720;SDS011;6932;51.438;5.470;2022-08-19T08:37:37;21.27;;;15.98;;
13720;SDS011;6932;51.438;5.470;2022-08-19T08:40:05;19.95;;;16.08;;
13720;SDS011;6932;51.438;5.470;2022-08-19T08:46:09;20.27;;;17.08;;
13720;SDS011;6932;51.438;5.470;2022-08-19T08:48:45;19.27;;;15.80;;
13720;SDS011;6932;51.438;5.470;2022-08-19T08:51:34;18.45;;;15.27;;
13720;SDS011;6932;51.438;5.470;2022-08-19T08:54:07;19.30;;;15.93;;
13720;SDS011;6932;51.438;5.470;2022-08-19T08:56:38;19.60;;;16.58;;
13720;SDS011;6932;51.438;5.470;2022-08-19T08:59:10;20.35;;;16.63;;
13720;SDS011;6932;51.438;5.470;2022-08-19T09:01:46;19.33;;;15.98;;
13720;SDS011;6932;51.438;5.470;2022-08-19T09:04:13;19.40;;;16.17;;
13720;SDS011;6932;51.438;5.470;2022-08-19T09:07:22;18.85;;;15.80;;
13720;SDS011;6932;51.438;5.470;2022-08-19T09:09:36;19.55;;;16.20;;
13720;SDS011;6932;51.438;5.470;2022-08-19T09:12:18;21.20;;;17.00;;
13720;SDS011;6932;51.438;5.470;2022-08-19T09:15:22;20.83;;;16.58;;
13720;SDS011;6932;51.438;5.470;2022-08-19T09:18:01;19.02;;;14.57;;
13720;SDS011;6932;51.438;5.470;2022-08-19T09:20:29;18.45;;;14.50;;
13720;SDS011;6932;51.438;5.470;2022-08-19T09:22:56;18.13;;;14.48;;
13720;SDS011;6932;51.438;5.470;2022-08-19T09:25:23;16.73;;;13.50;;
13720;SDS011;6932;51.438;5.470;2022-08-19T09:27:50;18.15;;;13.38;;
13720;SDS011;6932;51.438;5.470;2022-08-19T09:30:25;17.63;;;13.35;;
13720;SDS011;6932;51.438;5.470;2022-08-19T09:32:55;16.45;;;12.48;;
13720;SDS011;6932;51.438;5.470;2022-08-19T09:35:22;17.05;;;12.23;;
13720;SDS011;6932;51.438;5.470;2022-08-19T09:37:53;16.75;;;12.35;;
13720;SDS011;6932;51.438;5.470;2022-08-19T09:40:20;14.55;;;11.00;;
13720;SDS011;6932;51.438;5.470;2022-08-19T09:42:46;14.15;;;10.80;;
13720;SDS011;6932;51.438;5.470;2022-08-19T09:45:16;16.23;;;11.45;;
13720;SDS011;6932;51.438;5.470;2022-08-19T09:47:46;14.40;;;11.00;;
13720;SDS011;6932;51.438;5.470;2022-08-19T09:50:15;15.13;;;10.85;;
13720;SDS011;6932;51.438;5.470;2022-08-19T09:52:43;15.68;;;10.85;;
13720;SDS011;6932;51.438;5.470;2022-08-19T09:55:10;14.80;;;10.52;;
13720;SDS011;6932;51.438;5.470;2022-08-19T09:57:37;14.68;;;10.43;;
13720;SDS011;6932;51.438;5.470;2022-08-19T10:00:04;15.40;;;10.25;;
13720;SDS011;6932;51.438;5.470;2022-08-19T10:02:33;15.25;;;10.30;;
13720;SDS011;6932;51.438;5.470;2022-08-19T10:04:59;16.05;;;11.25;;
13720;SDS011;6932;51.438;5.470;2022-08-19T10:07:44;14.43;;;10.40;;
13720;SDS011;6932;51.438;5.470;2022-08-19T10:10:10;13.82;;;9.82;;
13720;SDS011;6932;51.438;5.470;2022-08-19T10:12:36;15.70;;;10.32;;
13720;SDS011;6932;51.438;5.470;2022-08-19T10:15:02;15.05;;;10.02;;
13720;SDS011;6932;51.438;5.470;2022-08-19T10:17:31;14.63;;;9.95;;
13720;SDS011;6932;51.438;5.470;2022-08-19T10:19:58;15.90;;;10.65;;
13720;SDS011;6932;51.438;5.470;2022-08-19T10:22:24;16.02;;;10.05;;
13720;SDS011;6932;51.438;5.470;2022-08-19T10:24:50;14.55;;;9.10;;
13720;SDS011;6932;51.438;5.470;2022-08-19T10:27:17;13.30;;;8.55;;
13720;SDS011;6932;51.438;5.470;2022-08-19T10:29:43;13.23;;;8.50;;
13720;SDS011;6932;51.438;5.470;2022-08-19T10:32:08;12.35;;;8.57;;
13720;SDS011;6932;51.438;5.470;2022-08-19T10:34:35;12.57;;;8.57;;
13720;SDS011;6932;51.438;5.470;2022-08-19T10:37:03;12.50;;;9.05;;
13720;SDS011;6932;51.438;5.470;2022-08-19T10:39:31;13.57;;;9.25;;
13720;SDS011;6932;51.438;5.470;2022-08-19T10:42:03;13.05;;;8.38;;
13720;SDS011;6932;51.438;5.470;2022-08-19T10:44:32;14.38;;;9.38;;
13720;SDS011;6932;51.438;5.470;2022-08-19T10:47:00;14.07;;;9.15;;
13720;SDS011;6932;51.438;5.470;2022-08-19T10:49:27;15.18;;;9.70;;
13720;SDS011;6932;51.438;5.470;2022-08-19T10:51:53;16.02;;;9.70;;
13720;SDS011;6932;51.438;5.470;2022-08-19T10:54:39;15.35;;;9.50;;
13720;SDS011;6932;51.438;5.470;2022-08-19T10:57:37;14.95;;;9.77;;
13720;SDS011;6932;51.438;5.470;2022-08-19T11:00:03;14.45;;;9.85;;
13720;SDS011;6932;51.438;5.470;2022-08-19T11:02:30;15.23;;;10.60;;
13720;SDS011;6932;51.438;5.470;2022-08-19T11:04:57;16.77;;;11.45;;
13720;SDS011;6932;51.438;5.470;2022-08-19T11:07:23;17.73;;;12.27;;
13720;SDS011;6932;51.438;5.470;2022-08-19T11:09:50;17.85;;;12.65;;
13720;SDS011;6932;51.438;5.470;2022-08-19T11:12:16;18.65;;;12.45;;
13720;SDS011;6932;51.438;5.470;2022-08-19T11:14:42;16.50;;;12.00;;
13720;SDS011;6932;51.438;5.470;2022-08-19T11:17:07;16.05;;;11.10;;
13720;SDS011;6932;51.438;5.470;2022-08-19T11:19:34;15.57;;;11.32;;
13720;SDS011;6932;51.438;5.470;2022-08-19T11:22:00;16.58;;;11.77;;
13720;SDS011;6932;51.438;5.470;2022-08-19T11:24:29;15.52;;;11.68;;
13720;SDS011;6932;51.438;5.470;2022-08-19T11:27:03;18.63;;;12.50;;
13720;SDS011;6932;51.438;5.470;2022-08-19T11:29:34;15.00;;;11.13;;
13720;SDS011;6932;51.438;5.470;2022-08-19T11:32:04;15.90;;;11.38;;
13720;SDS011;6932;51.438;5.470;2022-08-19T11:34:34;14.32;;;10.55;;
13720;SDS011;6932;51.438;5.470;2022-08-19T11:37:01;15.23;;;11.13;;
13720;SDS011;6932;51.438;5.470;2022-08-19T11:39:29;16.73;;;11.48;;
13720;SDS011;6932;51.438;5.470;2022-08-19T11:41:57;17.02;;;11.40;;
13720;SDS011;6932;51.438;5.470;2022-08-19T11:44:25;16.55;;;11.98;;
13720;SDS011;6932;51.438;5.470;2022-08-19T11:46:52;17.17;;;12.43;;
13720;SDS011;6932;51.438;5.470;2022-08-19T11:49:19;17.15;;;11.88;;
13720;SDS011;6932;51.438;5.470;2022-08-19T11:51:46;17.10;;;12.73;;
13720;SDS011;6932;51.438;5.470;2022-08-19T11:54:13;17.48;;;12.38;;
13720;SDS011;6932;51.438;5.470;2022-08-19T11:56:41;15.57;;;12.00;;
13720;SDS011;6932;51.438;5.470;2022-08-19T11:59:08;19.10;;;13.00;;
13720;SDS011;6932;51.438;5.470;2022-08-19T12:01:35;19.17;;;13.88;;
13720;SDS011;6932;51.438;5.470;2022-08-19T12:04:01;16.48;;;12.48;;
13720;SDS011;6932;51.438;5.470;2022-08-19T12:06:29;22.73;;;13.07;;
13720;SDS011;6932;51.438;5.470;2022-08-19T12:08:59;17.10;;;12.45;;
13720;SDS011;6932;51.438;5.470;2022-08-19T12:11:30;16.48;;;12.15;;
13720;SDS011;6932;51.438;5.470;2022-08-19T12:13:57;15.93;;;12.05;;
13720;SDS011;6932;51.438;5.470;2022-08-19T12:16:24;15.85;;;11.55;;
13720;SDS011;6932;51.438;5.470;2022-08-19T12:18:54;15.07;;;11.40;;
13720;SDS011;6932;51.438;5.470;2022-08-19T12:21:24;14.63;;;10.88;;
13720;SDS011;6932;51.438;5.470;2022-08-19T12:23:55;15.63;;;10.70;;
13720;SDS011;6932;51.438;5.470;2022-08-19T12:26:23;16.20;;;10.70;;
13720;SDS011;6932;51.438;5.470;2022-08-19T12:28:51;15.10;;;11.50;;
13720;SDS011;6932;51.438;5.470;2022-08-19T12:31:18;14.65;;;10.60;;
13720;SDS011;6932;51.438;5.470;2022-08-19T12:33:44;14.85;;;10.55;;
13720;SDS011;6932;51.438;5.470;2022-08-19T12:36:13;15.40;;;11.35;;
13720;SDS011;6932;51.438;5.470;2022-08-19T12:38:40;16.60;;;11.90;;
13720;SDS011;6932;51.438;5.470;2022-08-19T12:41:09;14.80;;;10.32;;
13720;SDS011;6932;51.438;5.470;2022-08-19T12:43:39;14.18;;;10.15;;
13720;SDS011;6932;51.438;5.470;2022-08-19T12:46:06;13.98;;;10.02;;
13720;SDS011;6932;51.438;5.470;2022-08-19T12:48:33;15.07;;;10.43;;
13720;SDS011;6932;51.438;5.470;2022-08-19T12:50:59;14.48;;;10.70;;
13720;SDS011;6932;51.438;5.470;2022-08-19T12:53:31;14.60;;;10.60;;
13720;SDS011;6932;51.438;5.470;2022-08-19T12:55:58;16.45;;;10.93;;
13720;SDS011;6932;51.438;5.470;2022-08-19T12:58:24;15.85;;;10.68;;
13720;SDS011;6932;51.438;5.470;2022-08-19T13:00:51;14.25;;;10.00;;
13720;SDS011;6932;51.438;5.470;2022-08-19T13:03:17;14.20;;;9.43;;
13720;SDS011;6932;51.438;5.470;2022-08-19T13:05:43;13.52;;;8.48;;
13720;SDS011;6932;51.438;5.470;2022-08-19T13:08:09;11.40;;;7.88;;
13720;SDS011;6932;51.438;5.470;2022-08-19T13:10:36;10.57;;;7.28;;
13720;SDS011;6932;51.438;5.470;2022-08-19T13:13:06;11.40;;;7.20;;
13720;SDS011;6932;51.438;5.470;2022-08-19T13:15:35;11.82;;;7.20;;
13720;SDS011;6932;51.438;5.470;2022-08-19T13:18:05;9.75;;;6.43;;
13720;SDS011;6932;51.438;5.470;2022-08-19T13:20:34;10.05;;;6.63;;
13720;SDS011;6932;51.438;5.470;2022-08-19T13:23:01;9.85;;;6.30;;
13720;SDS011;6932;51.438;5.470;2022-08-19T13:25:28;11.38;;;6.65;;
13720;SDS011;6932;51.438;5.470;2022-08-19T13:27:54;9.63;;;6.30;;
13720;SDS011;6932;51.438;5.470;2022-08-19T13:30:21;9.57;;;6.10;;
13720;SDS011;6932;51.438;5.470;2022-08-19T13:33:06;11.70;;;7.25;;
13720;SDS011;6932;51.438;5.470;2022-08-19T13:35:49;10.10;;;6.63;;
13720;SDS011;6932;51.438;5.470;2022-08-19T13:38:23;10.18;;;6.70;;
13720;SDS011;6932;51.438;5.470;2022-08-19T13:40:50;10.18;;;6.50;;
13720;SDS011;6932;51.438;5.470;2022-08-19T13:43:19;10.30;;;6.47;;
13720;SDS011;6932;51.438;5.470;2022-08-19T13:45:48;9.48;;;6.60;;
13720;SDS011;6932;51.438;5.470;2022-08-19T13:48:20;12.45;;;7.35;;
13720;SDS011;6932;51.438;5.470;2022-08-19T13:50:46;11.10;;;7.35;;
13720;SDS011;6932;51.438;5.470;2022-08-19T13:53:13;9.90;;;6.72;;
13720;SDS011;6932;51.438;5.470;2022-08-19T13:55:40;10.32;;;6.57;;
13720;SDS011;6932;51.438;5.470;2022-08-19T13:58:08;10.07;;;6.57;;
13720;SDS011;6932;51.438;5.470;2022-08-19T14:00:36;10.30;;;7.30;;
13720;SDS011;6932;51.438;5.470;2022-08-19T14:03:06;10.80;;;6.88;;
13720;SDS011;6932;51.438;5.470;2022-08-19T14:05:32;9.95;;;6.80;;
13720;SDS011;6932;51.438;5.470;2022-08-19T14:07:58;9.98;;;6.60;;
13720;SDS011;6932;51.438;5.470;2022-08-19T14:10:24;10.27;;;7.32;;
13720;SDS011;6932;51.438;5.470;2022-08-19T14:12:52;10.27;;;6.45;;
13720;SDS011;6932;51.438;5.470;2022-08-19T14:15:20;10.15;;;6.50;;
13720;SDS011;6932;51.438;5.470;2022-08-19T14:17:48;10.32;;;6.18;;
13720;SDS011;6932;51.438;5.470;2022-08-19T14:20:14;10.70;;;5.90;;
13720;SDS011;6932;51.438;5.470;2022-08-19T14:22:41;9.65;;;6.10;;
13720;SDS011;6932;51.438;5.470;2022-08-19T14:25:11;9.43;;;5.30;;
13720;SDS011;6932;51.438;5.470;2022-08-19T14:27:41;8.38;;;5.57;;
13720;SDS011;6932;51.438;5.470;2022-08-19T14:30:08;8.32;;;5.10;;
13720;SDS011;6932;51.438;5.470;2022-08-19T14:32:38;6.90;;;4.57;;
13720;SDS011;6932;51.438;5.470;2022-08-19T14:35:04;7.45;;;4.72;;
13720;SDS011;6932;51.438;5.470;2022-08-19T14:37:32;9.00;;;5.30;;
13720;SDS011;6932;51.438;5.470;2022-08-19T14:39:59;8.02;;;4.90;;
13720;SDS011;6932;51.438;5.470;2022-08-19T14:42:25;6.32;;;4.63;;
13720;SDS011;6932;51.438;5.470;2022-08-19T14:44:51;7.00;;;4.25;;
13720;SDS011;6932;51.438;5.470;2022-08-19T14:47:17;6.40;;;4.30;;
13720;SDS011;6932;51.438;5.470;2022-08-19T14:49:42;9.13;;;4.90;;
13720;SDS011;6932;51.438;5.470;2022-08-19T14:52:08;7.68;;;4.97;;
13720;SDS011;6932;51.438;5.470;2022-08-19T14:54:34;7.28;;;4.47;;
13720;SDS011;6932;51.438;5.470;2022-08-19T14:57:00;6.25;;;4.47;;
13720;SDS011;6932;51.438;5.470;2022-08-19T14:59:26;7.63;;;5.00;;